createdAt,value
2022-10-04T00:02:31.253Z,10.40
2022-10-04T00:05:36.950Z,10.00
2022-10-04T00:08:45.596Z,10.00
2022-10-04T00:11:49.644Z,9.75
2022-10-04T00:14:54.851Z,13.00
2022-10-04T00:18:05.875Z,9.60
2022-10-04T00:21:10.833Z,10.00
2022-10-04T00:24:22.739Z,9.00
2022-10-04T00:27:28.700Z,10.00
2022-10-04T00:30:39.088Z,9.40
2022-10-04T00:33:43.869Z,10.60
2022-10-04T00:36:53.194Z,9.00
2022-10-04T00:40:14.320Z,9.60
2022-10-04T00:43:22.795Z,10.25
2022-10-04T00:46:30.690Z,12.00
2022-10-04T00:49:40.406Z,10.00
2022-10-04T00:52:49.068Z,11.00
2022-10-04T00:55:56.051Z,13.00
2022-10-04T00:59:18.561Z,12.25
2022-10-04T01:02:24.486Z,11.00
2022-10-04T01:05:33.289Z,9.40
2022-10-04T01:08:42.207Z,11.50
2022-10-04T01:11:57.667Z,10.00
2022-10-04T01:15:08.626Z,10.00
2022-10-04T01:18:15.246Z,11.00
2022-10-04T01:21:29.762Z,10.00
2022-10-04T01:24:38.294Z,11.00
2022-10-04T01:27:45.233Z,10.80
2022-10-04T01:30:49.438Z,9.50
2022-10-04T01:33:52.816Z,8.50
2022-10-04T01:36:59.366Z,11.40
2022-10-04T01:40:04.623Z,7.20
2022-10-04T01:43:11.599Z,7.80
2022-10-04T01:46:22.136Z,8.00
2022-10-04T01:49:30.404Z,8.00
2022-10-04T01:52:39.238Z,10.00
2022-10-04T01:55:49.781Z,11.40
2022-10-04T01:58:59.090Z,9.25
2022-10-04T02:02:08.526Z,9.40
2022-10-04T02:05:14.298Z,9.00
2022-10-04T02:08:23.675Z,8.00
2022-10-04T02:11:31.700Z,10.60
2022-10-04T02:14:36.849Z,11.00
2022-10-04T02:17:43.099Z,10.00
2022-10-04T02:20:49.654Z,9.00
2022-10-04T02:23:54.706Z,11.40
2022-10-04T02:27:01.232Z,11.00
2022-10-04T02:30:08.211Z,10.00
2022-10-04T02:33:11.262Z,10.00
2022-10-04T02:36:16.001Z,9.00
2022-10-04T02:39:26.113Z,7.40
2022-10-04T02:42:40.388Z,8.00
2022-10-04T02:45:50.364Z,8.60
2022-10-04T02:48:58.630Z,9.00
2022-10-04T02:52:06.929Z,7.00
2022-10-04T02:55:21.168Z,7.00
2022-10-04T02:58:27.920Z,7.00
2022-10-04T03:01:42.442Z,7.00
2022-10-04T03:04:45.899Z,7.00
2022-10-04T03:07:52.130Z,10.00
2022-10-04T03:10:55.630Z,5.20
2022-10-04T03:14:04.099Z,7.40
2022-10-04T03:17:09.687Z,7.00
2022-10-04T03:20:21.201Z,6.00
2022-10-04T03:23:24.862Z,7.00
2022-10-04T03:26:32.007Z,6.00
2022-10-04T03:29:41.109Z,6.40
2022-10-04T03:32:45.225Z,8.00
2022-10-04T03:35:53.261Z,10.00
2022-10-04T03:38:58.585Z,7.00
2022-10-04T03:42:06.664Z,8.00
2022-10-04T03:45:18.504Z,8.60
2022-10-04T03:48:31.178Z,7.00
2022-10-04T03:51:35.410Z,6.40
2022-10-04T03:54:39.561Z,6.00
2022-10-04T03:57:43.648Z,7.00
2022-10-04T04:01:02.170Z,7.00
2022-10-04T04:04:19.070Z,5.80
2022-10-04T04:07:27.579Z,5.00
2022-10-04T04:10:35.079Z,7.00
2022-10-04T04:13:47.727Z,6.00
2022-10-04T04:16:53.971Z,6.60
2022-10-04T04:20:04.921Z,5.20
2022-10-04T04:23:24.135Z,8.00
2022-10-04T04:26:35.294Z,6.00
2022-10-04T04:29:48.465Z,7.00
2022-10-04T04:32:57.734Z,6.00
2022-10-04T04:36:08.706Z,7.00
2022-10-04T04:39:37.405Z,8.00
2022-10-04T04:42:40.910Z,5.00
2022-10-04T04:45:44.473Z,5.00
2022-10-04T04:48:53.555Z,7.00
2022-10-04T04:51:58.106Z,6.00
2022-10-04T04:55:02.137Z,6.00
2022-10-04T04:58:08.406Z,6.00
2022-10-04T05:01:19.575Z,9.00
2022-10-04T05:04:25.111Z,6.00
2022-10-04T05:07:29.583Z,6.00
2022-10-04T05:10:34.379Z,5.00
2022-10-04T05:13:43.713Z,8.60
2022-10-04T05:16:51.264Z,8.80
2022-10-04T05:19:59.950Z,8.80
2022-10-04T05:23:03.302Z,8.00
2022-10-04T05:26:12.774Z,8.00
2022-10-04T05:29:20.667Z,8.00
2022-10-04T05:32:34.687Z,7.00
2022-10-04T05:35:58.176Z,8.00
2022-10-04T05:39:07.146Z,7.00
2022-10-04T05:42:20.052Z,8.40
2022-10-04T05:45:27.319Z,7.60
2022-10-04T05:48:31.599Z,7.00
2022-10-04T05:51:50.310Z,7.25
2022-10-04T05:55:18.239Z,6.00
2022-10-04T05:58:47.014Z,6.00
2022-10-04T06:01:58.259Z,5.00
2022-10-04T06:05:12.128Z,7.00
2022-10-04T06:08:27.313Z,8.00
2022-10-04T06:11:48.981Z,7.00
2022-10-04T06:15:20.291Z,7.00
2022-10-04T06:18:46.889Z,7.00
2022-10-04T06:22:12.435Z,7.40
2022-10-04T06:25:28.882Z,6.33
2022-10-04T06:28:37.935Z,6.00
2022-10-04T06:32:12.670Z,8.40
2022-10-04T06:35:39.991Z,6.00
2022-10-04T06:39:05.700Z,7.00
2022-10-04T06:42:34.419Z,7.00
2022-10-04T06:45:53.699Z,6.25
2022-10-04T06:49:15.765Z,7.40
2022-10-04T06:52:32.707Z,4.80
2022-10-04T06:55:55.576Z,8.00
2022-10-04T06:59:24.672Z,6.00
2022-10-04T07:02:34.457Z,7.00
2022-10-04T07:05:46.691Z,6.20
2022-10-04T07:08:56.154Z,7.75
2022-10-04T07:12:05.718Z,6.00
2022-10-04T07:15:20.862Z,6.00
2022-10-04T07:18:30.071Z,8.00
2022-10-04T07:21:41.709Z,6.00
2022-10-04T07:25:05.035Z,6.60
2022-10-04T07:28:34.116Z,7.00
2022-10-04T07:31:40.133Z,5.75
2022-10-04T07:34:51.499Z,6.00
2022-10-04T07:38:01.852Z,6.00
2022-10-04T07:41:11.835Z,6.00
2022-10-04T07:44:24.233Z,6.60
2022-10-04T07:47:30.272Z,6.00
2022-10-04T07:50:43.352Z,6.00
2022-10-04T07:53:54.879Z,4.50
2022-10-04T07:57:02.825Z,5.75
2022-10-04T08:00:13.941Z,7.00
2022-10-04T08:03:36.553Z,7.00
2022-10-04T08:06:52.737Z,5.60
2022-10-04T08:10:04.143Z,6.40
2022-10-04T08:13:22.475Z,5.80
2022-10-04T08:16:37.015Z,6.00
2022-10-04T08:19:54.319Z,6.00
2022-10-04T08:23:09.101Z,7.40
2022-10-04T08:26:34.680Z,7.00
2022-10-04T08:29:59.269Z,5.00
2022-10-04T08:33:13.520Z,5.00
2022-10-04T08:36:33.001Z,6.20
2022-10-04T08:39:59.634Z,7.00
2022-10-04T08:43:37.287Z,5.50
2022-10-04T08:47:22.587Z,5.40
2022-10-04T08:50:48.046Z,6.00
2022-10-04T08:54:21.916Z,6.00
2022-10-04T08:58:02.716Z,8.00
2022-10-04T09:01:32.794Z,4.20
2022-10-04T09:05:08.705Z,5.00
2022-10-04T09:09:14.435Z,6.40
2022-10-04T09:12:45.341Z,8.75
2022-10-04T09:15:56.715Z,6.00
2022-10-04T09:19:21.834Z,6.00
2022-10-04T09:22:48.218Z,6.00
2022-10-04T09:26:07.639Z,6.80
2022-10-04T09:29:36.409Z,6.00
2022-10-04T09:33:00.448Z,7.00
2022-10-04T09:36:23.267Z,6.50
2022-10-04T09:40:01.327Z,6.00
2022-10-04T09:46:56.667Z,5.00
2022-10-04T09:50:35.772Z,6.40
2022-10-04T09:53:52.904Z,7.00
2022-10-04T09:57:16.331Z,6.00
2022-10-04T10:00:24.193Z,5.00
2022-10-04T10:04:05.863Z,6.67
2022-10-04T10:07:38.475Z,7.00
2022-10-04T10:11:14.831Z,6.00
2022-10-04T10:14:47.603Z,5.00
2022-10-04T10:17:56.826Z,4.50
2022-10-04T10:21:25.243Z,3.20
2022-10-04T10:25:02.163Z,5.00
2022-10-04T10:28:25.960Z,5.00
2022-10-04T10:31:54.314Z,4.00
2022-10-04T10:35:17.513Z,5.60
2022-10-04T10:38:40.296Z,5.60
2022-10-04T10:41:57.223Z,6.00
2022-10-04T10:45:24.633Z,4.00
2022-10-04T10:48:41.877Z,3.25
2022-10-04T10:52:25.501Z,6.00
2022-10-04T10:55:54.488Z,3.80
2022-10-04T10:59:47.608Z,4.00
2022-10-04T11:03:22.743Z,4.75
2022-10-04T11:07:06.245Z,4.60
2022-10-04T11:10:51.959Z,4.00
2022-10-04T11:14:43.738Z,4.20
2022-10-04T11:18:19.931Z,2.50
2022-10-04T11:22:07.569Z,5.67
2022-10-04T11:25:48.935Z,4.00
2022-10-04T11:28:59.131Z,3.60
2022-10-04T11:32:32.646Z,4.00
2022-10-04T11:35:55.023Z,4.60
2022-10-04T11:39:25.362Z,3.50
2022-10-04T11:42:51.312Z,4.00
2022-10-04T11:46:17.440Z,5.00
2022-10-04T11:49:44.266Z,4.00
2022-10-04T11:53:26.126Z,5.00
2022-10-04T11:56:42.591Z,3.25
2022-10-04T11:59:58.486Z,5.00
2022-10-04T12:03:33.108Z,3.60
2022-10-04T12:06:58.981Z,6.00
2022-10-04T12:10:20.935Z,2.00
2022-10-04T12:13:52.319Z,2.25
2022-10-04T12:17:28.994Z,3.00
2022-10-04T12:21:07.542Z,4.00
2022-10-04T12:24:48.309Z,4.00
2022-10-04T12:28:23.049Z,4.00
2022-10-04T12:31:32.730Z,5.00
2022-10-04T12:34:48.902Z,4.80
2022-10-04T12:38:23.568Z,3.00
2022-10-04T12:41:40.432Z,4.00
2022-10-04T12:45:00.357Z,3.00
2022-10-04T12:48:24.454Z,3.00
2022-10-04T12:51:38.314Z,5.00
2022-10-04T12:54:45.229Z,4.00
2022-10-04T12:57:56.404Z,4.00
2022-10-04T13:01:11.577Z,4.00
2022-10-04T13:04:29.258Z,4.00
2022-10-04T13:07:48.573Z,4.00
2022-10-04T13:11:22.440Z,4.00
2022-10-04T13:14:46.391Z,3.00
2022-10-04T13:17:59.782Z,3.00
2022-10-04T13:21:06.839Z,4.00
2022-10-04T13:24:24.144Z,3.00
2022-10-04T13:27:35.325Z,4.00
2022-10-04T13:30:51.312Z,3.60
2022-10-04T13:34:01.594Z,3.00
2022-10-04T13:37:21.959Z,3.00
2022-10-04T13:40:35.589Z,3.00
2022-10-04T13:44:11.100Z,3.67
2022-10-04T13:47:39.722Z,3.00
2022-10-04T13:51:00.311Z,3.00
2022-10-04T13:54:40.612Z,3.00
2022-10-04T13:57:51.604Z,3.00
2022-10-04T14:01:15.461Z,3.50
2022-10-04T14:04:38.315Z,2.00
2022-10-04T14:07:58.814Z,3.00
2022-10-04T14:11:28.525Z,2.00
2022-10-04T14:15:01.940Z,3.60
2022-10-04T14:18:47.355Z,4.00
2022-10-04T14:22:21.771Z,3.00
2022-10-04T14:25:52.890Z,3.00
2022-10-04T14:29:17.381Z,4.00
2022-10-04T14:32:54.074Z,2.40
2022-10-04T14:36:27.165Z,3.00
2022-10-04T14:40:08.134Z,4.00
2022-10-04T14:43:43.465Z,2.00
2022-10-04T14:46:57.940Z,3.00
2022-10-04T14:50:19.777Z,2.00
2022-10-04T14:53:35.178Z,2.40
2022-10-04T14:56:59.511Z,3.60
2022-10-04T15:00:12.750Z,4.00
2022-10-04T15:03:32.809Z,5.00
2022-10-04T15:06:48.921Z,3.50
2022-10-04T15:09:58.617Z,2.75
2022-10-04T15:13:11.502Z,3.00
2022-10-04T15:16:34.151Z,4.00
2022-10-04T15:19:54.570Z,5.00
2022-10-04T15:23:14.390Z,4.00
2022-10-04T15:26:51.103Z,5.40
2022-10-04T15:30:09.628Z,5.00
2022-10-04T15:33:30.727Z,3.80
2022-10-04T15:36:55.207Z,7.00
2022-10-04T15:40:31.898Z,4.80
2022-10-04T15:43:43.792Z,4.00
2022-10-04T15:46:52.770Z,6.00
2022-10-04T15:50:06.188Z,6.00
2022-10-04T15:53:41.339Z,6.80
2022-10-04T15:56:50.901Z,6.00
2022-10-04T16:00:03.216Z,4.60
2022-10-04T16:03:27.342Z,4.40
2022-10-04T16:06:41.976Z,6.60
2022-10-04T16:09:53.883Z,6.00
2022-10-04T16:13:19.620Z,4.00
2022-10-04T16:17:18.850Z,6.40
2022-10-04T16:20:48.673Z,3.00
2022-10-04T16:24:29.707Z,4.00
2022-10-04T16:27:50.615Z,4.80
2022-10-04T16:31:22.361Z,4.60
2022-10-04T16:34:42.363Z,3.00
2022-10-04T16:37:59.902Z,4.00
2022-10-04T16:41:11.811Z,5.00
2022-10-04T16:44:34.088Z,3.80
2022-10-04T16:47:40.811Z,5.00
2022-10-04T16:51:23.211Z,5.00
2022-10-04T16:55:03.039Z,3.50
2022-10-04T16:58:43.327Z,4.00
2022-10-04T17:02:14.308Z,6.00
2022-10-04T17:05:41.517Z,5.80
2022-10-04T17:08:54.064Z,7.00
2022-10-04T17:12:17.112Z,6.40
2022-10-04T17:15:34.955Z,6.00
2022-10-04T17:18:52.042Z,7.00
2022-10-04T17:22:05.959Z,8.50
2022-10-04T17:25:25.920Z,7.00
2022-10-04T17:28:35.670Z,5.00
2022-10-04T17:31:50.240Z,8.40
2022-10-04T17:35:09.159Z,8.00
2022-10-04T17:38:19.392Z,9.00
2022-10-04T17:41:33.927Z,10.00
2022-10-04T17:45:22.195Z,9.25
2022-10-04T17:48:46.552Z,8.00
2022-10-04T17:52:11.683Z,8.40
2022-10-04T17:55:19.678Z,10.00
2022-10-04T17:58:30.425Z,10.00
2022-10-04T18:01:41.168Z,9.00
2022-10-04T18:04:51.708Z,10.20
2022-10-04T18:08:01.377Z,10.40
2022-10-04T18:11:15.303Z,12.00
2022-10-04T18:14:52.301Z,11.00
2022-10-04T18:18:16.121Z,10.00
2022-10-04T18:21:27.556Z,11.00
2022-10-04T18:24:31.079Z,12.60
2022-10-04T18:27:48.847Z,12.00
2022-10-04T18:30:59.056Z,12.40
2022-10-04T18:34:18.120Z,14.00
2022-10-04T18:37:29.386Z,10.00
2022-10-04T18:40:35.565Z,14.50
2022-10-04T18:43:45.443Z,12.00
2022-10-04T18:46:51.362Z,12.00
2022-10-04T18:50:00.004Z,14.50
2022-10-04T18:53:19.797Z,12.40
2022-10-04T18:56:23.733Z,11.80
2022-10-04T19:00:00.254Z,11.00
2022-10-04T19:03:16.283Z,13.00
2022-10-04T19:06:27.174Z,11.40
2022-10-04T19:09:45.305Z,13.80
2022-10-04T19:13:03.404Z,15.20
2022-10-04T19:16:37.417Z,14.20
2022-10-04T19:19:56.136Z,14.67
2022-10-04T19:23:14.412Z,13.40
2022-10-04T19:26:43.461Z,18.00
2022-10-04T19:30:03.090Z,14.00
2022-10-04T19:33:18.789Z,14.00
2022-10-04T19:36:36.690Z,13.60
2022-10-04T19:39:55.397Z,17.00
2022-10-04T19:43:04.800Z,18.00
2022-10-04T19:46:19.091Z,15.00
2022-10-04T19:49:31.961Z,15.40
2022-10-04T19:52:44.691Z,17.40
2022-10-04T19:55:55.986Z,15.25
2022-10-04T19:59:06.942Z,19.60
2022-10-04T20:02:11.665Z,16.00
2022-10-04T20:05:17.537Z,18.50
2022-10-04T20:08:50.549Z,16.00
2022-10-04T20:11:55.475Z,13.60
2022-10-04T20:15:15.863Z,13.40
2022-10-04T20:18:58.700Z,18.00
2022-10-04T20:22:31.703Z,17.20
2022-10-04T20:26:03.619Z,16.00
2022-10-04T20:29:09.244Z,17.75
2022-10-04T20:32:34.422Z,16.60
2022-10-04T20:36:06.000Z,18.00
2022-10-04T20:40:00.174Z,15.00
2022-10-04T20:43:26.639Z,20.60
2022-10-04T20:46:38.249Z,18.00
2022-10-04T20:49:45.647Z,17.00
2022-10-04T20:52:52.853Z,20.00
2022-10-04T20:56:12.026Z,17.80
2022-10-04T20:59:16.932Z,16.20
2022-10-04T21:02:23.065Z,19.40
2022-10-04T21:05:26.708Z,18.20
2022-10-04T21:08:30.802Z,16.75
2022-10-04T21:11:45.576Z,19.60
2022-10-04T21:15:03.337Z,22.60
2022-10-04T21:18:09.831Z,20.20
2022-10-04T21:21:14.747Z,14.00
2022-10-04T21:24:36.866Z,19.40
2022-10-04T21:27:43.698Z,18.75
2022-10-04T21:30:47.171Z,19.00
2022-10-04T21:33:51.987Z,21.00
2022-10-04T21:36:55.463Z,18.50
2022-10-04T21:39:59.060Z,24.00
2022-10-04T21:43:02.275Z,27.00
2022-10-04T21:46:06.105Z,20.60
2022-10-04T21:49:10.738Z,24.60
2022-10-04T21:52:14.018Z,19.80
2022-10-04T21:55:17.325Z,21.00
2022-10-04T21:58:20.621Z,20.60
2022-10-04T22:01:24.503Z,20.00
2022-10-04T22:04:29.264Z,21.00
2022-10-04T22:07:32.574Z,21.00
2022-10-04T22:10:36.113Z,21.00
2022-10-04T22:13:39.537Z,19.75
2022-10-04T22:16:43.748Z,19.80
2022-10-04T22:19:49.963Z,20.00
2022-10-04T22:22:55.688Z,18.00
2022-10-04T22:25:58.894Z,18.00
2022-10-04T22:29:02.445Z,20.00
2022-10-04T22:32:14.633Z,18.00
2022-10-04T22:35:21.234Z,19.20
2022-10-04T22:38:24.581Z,17.60
2022-10-04T22:41:36.524Z,19.00
2022-10-04T22:44:41.478Z,21.00
2022-10-04T22:47:44.774Z,22.00
2022-10-04T22:50:51.185Z,19.00
2022-10-04T22:53:54.493Z,21.25
2022-10-04T22:56:58.982Z,19.25
2022-10-04T23:00:02.786Z,17.33
2022-10-04T23:03:24.644Z,21.80
2022-10-04T23:06:29.376Z,21.60
2022-10-04T23:09:32.656Z,20.00
2022-10-04T23:12:36.485Z,16.00
2022-10-04T23:15:40.696Z,17.25
2022-10-04T23:18:44.274Z,16.50
2022-10-04T23:21:51.108Z,15.00
2022-10-04T23:24:55.070Z,17.40
2022-10-04T23:28:02.205Z,17.75
2022-10-04T23:31:15.759Z,13.67
2022-10-04T23:34:23.294Z,14.75
2022-10-04T23:37:32.044Z,16.00
2022-10-04T23:40:35.657Z,15.00
2022-10-04T23:43:39.645Z,15.00
2022-10-04T23:46:44.031Z,14.20
2022-10-04T23:49:49.676Z,17.60
2022-10-04T23:52:58.382Z,15.40
2022-10-04T23:56:05.650Z,18.00
2022-10-04T23:59:15.653Z,16.00
